Station: Cloncurry  

  Atmospheric Gas Attenuation - ITU Rec 676-11   ----------------- dB/100km -----------------
Date Time Temp RH % AH g/m3 Dew Point Wind Direction Speed kph Gust kph Barometer mB Rainfall Since 9am 24GHz 47GHz 76GHz 122GHz 134GHz 241GHz
08/05 12:30 25.4 30 7.06 6.6 30 44 1018 0 15.8 20.9 29.5 77.1 68.3 234.5
08/05 12:20 25.2 30 6.98 6.4 30 37 1018.2 0 15.7 20.8 29.3 76.6 67.7 232.0
08/05 12:10 25.6 30 7.14 6.7 30 33 1018.4 0 16.0 20.9 29.7 77.6 69.1 237.0
08/05 12:00 24.6 30 6.75 5.9 32 41 1018.5 0 15.2 20.6 28.8 75.2 65.7 225.1
08/05 11:50 24.4 30 6.68 5.7 26 30 1018.8 0 15.1 20.6 28.7 74.8 65.1 223.0
08/05 11:40 23.7 30 6.42 5.1 32 39 1019 0 14.6 20.4 28.1 73.1 62.9 215.1
08/05 11:30 23.9 30 6.49 5.3 30 39 1019.2 0 14.7 20.5 28.2 73.6 63.5 217.3
08/05 11:20 23 31 6.37 5 35 41 1019.4 0 14.5 20.5 28.1 73.4 62.9 215.1
08/05 11:10 23 30 6.17 4.5 28 32 1019.5 0 14.1 20.3 27.5 71.6 60.8 207.6
08/05 11:00 23.9 31 6.71 5.8 30 43 1019.7 0 15.2 20.8 29.0 75.5 65.9 225.7
08/05 10:50 22.7 31 6.26 4.7 32 33 1019.8 0 14.3 20.4 27.9 72.7 62.0 211.8
08/05 10:40 22.9 31 6.33 4.9 26 30 1019.9 0 14.4 20.5 28.1 73.1 62.6 214.0
08/05 10:29 22 32 6.21 4.6 26 32 1019.9 0 14.2 20.5 28.0 72.9 62.0 211.7
08/05 10:20 22.3 32 6.32 4.8 26 28 1019.9 0 14.4 20.6 28.2 73.6 63.0 215.1
08/05 10:10 21.8 32 6.14 4.4 30 33 1019.9 0 14.1 20.5 27.8 72.4 61.4 209.5
08/05 10:00 21.9 33 6.37 4.9 30 41 1019.8 0 14.5 20.8 28.5 74.4 63.8 218.1
08/05 09:50 20.6 34 6.08 4.2 30 33 1019.9 0 14.0 20.7 28.0 73.0 61.6 210.3
08/05 09:40 20.6 34 6.08 4.2 28 35 1019.9 0 14.0 20.7 28.0 73.0 61.6 210.3
08/05 09:30 20.1 34 5.91 3.8 30 39 1019.9 0 13.6 20.5 27.6 71.9 60.1 204.9
08/05 09:20 19.8 34 5.81 3.5 32 35 1020 0 13.4 20.5 27.4 71.3 59.2 201.8
08/05 09:10 19.8 34 5.81 3.5 26 32 1020 0 13.4 20.5 27.4 71.3 59.2 201.8
08/05 09:00 19.6 34 5.74 3.3 32 48 1019.9 0 13.3 20.4 27.2 70.8 58.6 199.6
08/05 08:50 19.6 34 5.74 3.3 32 39 1019.9 0 13.3 20.4 27.2 70.8 58.6 199.6
08/05 08:40 19.6 34 5.74 3.3 35 43 1019.8 0 13.3 20.4 27.2 70.8 58.6 199.6
08/05 08:30 19.5 34 5.71 3.2 30 39 1019.7 0 13.2 20.4 27.1 70.6 58.3 198.6
08/05 08:20 19.5 34 5.71 3.2 30 37 1019.7 0 13.2 20.4 27.1 70.6 58.3 198.6
08/05 08:10 19.4 34 5.67 3.2 35 43 1019.5 0 13.2 20.4 27.0 70.3 58.0 197.3
08/05 08:00 19.4 34 5.67 3.2 30 41 1019.1 0 13.2 20.3 27.0 70.3 57.9 197.2
08/05 07:50 19.5 34 5.71 3.2 28 32 1018.9 0 13.2 20.4 27.1 70.5 58.3 198.5
08/05 07:40 19.4 34 5.67 3.2 30 37 1018.7 0 13.2 20.3 27.0 70.2 57.9 197.1
08/05 07:30 19.4 34 5.67 3.2 30 39 1018.6 0 13.2 20.3 27.0 70.2 57.9 197.1
08/05 07:20 19.4 34 5.67 3.2 26 32 1018.6 0 13.2 20.3 27.0 70.2 57.9 197.1
08/05 07:10 19.6 33 5.57 2.9 33 39 1018.6 0 13.0 20.2 26.6 69.2 56.7 192.8
08/05 07:00 19.6 33 5.57 2.9 30 41 1018.5 0 13.0 20.1 26.6 69.2 56.7 192.8
08/05 06:50 19.7 33 5.6 3 33 41 1018.5 0 13.0 20.2 26.7 69.4 56.9 193.7
08/05 06:40 19.7 33 5.6 3 26 32 1018.4 0 13.0 20.2 26.7 69.3 56.9 193.7
08/05 06:30 19.7 33 5.6 3 24 35 1018.3 0 13.0 20.2 26.7 69.3 56.9 193.7
08/05 06:20 19.7 33 5.6 3 20 28 1018.3 0 13.0 20.2 26.7 69.3 56.9 193.7
08/05 06:10 18.7 35 5.6 2.9 20 24 1018.1 0 13.0 20.4 27.0 70.2 57.6 196.0
08/05 06:00 18.4 36 5.66 3.1 17 22 1017.9 0 13.2 20.5 27.3 70.9 58.5 199.0
08/05 05:50 18.4 36 5.66 3.1 15 17 1017.9 0 13.2 20.5 27.3 70.9 58.5 199.0
08/05 05:40 18.5 35 5.54 2.8 17 19 1018 0 12.9 20.3 26.8 69.8 57.1 194.1
08/05 05:30 18.5 35 5.54 2.8 17 22 1017.7 0 12.9 20.3 26.8 69.8 57.1 194.1
08/05 05:20 18.5 35 5.54 2.8 17 20 1017.7 0 12.9 20.3 26.8 69.8 57.1 194.1
08/05 05:10 18.4 35 5.5 2.7 17 17 1017.7 0 12.8 20.3 26.7 69.5 56.7 192.7
08/05 05:00 18.2 35 5.44 2.5 15 19 1017.6 0 12.7 20.2 26.6 69.1 56.2 190.9
08/05 04:50 18.8 34 5.48 2.6 20 24 1017.6 0 12.8 20.2 26.5 69.0 56.2 191.0
08/05 04:40 18.8 34 5.48 2.6 15 17 1017.6 0 12.8 20.2 26.5 69.0 56.2 191.0
08/05 04:30 18.9 34 5.51 2.7 17 22 1017.6 0 12.8 20.2 26.6 69.2 56.5 191.9
08/05 04:20 18.7 34 5.44 2.5 19 22 1017.7 0 12.7 20.1 26.4 68.7 55.8 189.7
08/05 04:10 18.8 34 5.48 2.6 15 17 1017.4 0 12.8 20.2 26.5 69.0 56.2 191.0
08/05 04:00 18.7 35 5.6 2.9 13 19 1017.4 0 13.0 20.3 26.9 70.1 57.6 195.9
08/05 03:50 18.5 36 5.7 3.2 13 13 1017.5 0 13.3 20.5 27.4 71.2 58.8 200.3
08/05 03:40 18.7 36 5.76 3.3 17 19 1017.5 0 13.4 20.6 27.5 71.6 59.4 202.1
08/05 03:30 19 35 5.7 3.2 17 20 1017.4 0 13.2 20.4 27.2 70.8 58.5 199.0
08/05 03:20 19.3 35 5.8 3.5 17 20 1017.3 0 13.4 20.5 27.4 71.4 59.4 202.2
08/05 03:10 19.1 36 5.9 3.7 15 19 1017.4 0 13.7 20.7 27.8 72.5 60.6 206.6
08/05 03:00 19.5 35 5.87 3.6 17 22 1017.4 0 13.6 20.5 27.6 71.8 60.0 204.4
08/05 02:50 19.3 36 5.97 3.9 17 19 1017.4 0 13.8 20.7 28.0 72.9 61.2 208.8
08/05 02:40 19.3 36 5.97 3.9 17 19 1017.3 0 13.8 20.7 28.0 72.9 61.2 208.8
08/05 02:30 19.2 37 6.1 4.2 17 20 1017.5 0 14.1 20.9 28.5 74.2 62.8 214.2
08/05 02:20 19.3 37 6.14 4.3 15 19 1017.3 0 14.2 21.0 28.6 74.4 63.1 215.5
08/05 02:10 19.6 37 6.25 4.5 17 19 1017.3 0 14.4 21.0 28.8 75.2 64.1 219.0
08/05 02:00 19.4 37 6.17 4.4 15 19 1017.1 0 14.2 21.0 28.6 74.6 63.4 216.4
08/05 01:50 19.7 37 6.28 4.6 15 19 1017 0 14.4 21.0 28.9 75.3 64.4 219.9
08/05 01:40 19.7 37 6.28 4.6 15 19 1017.1 0 14.4 21.0 28.9 75.3 64.4 219.9
08/05 01:30 19.6 38 6.41 4.9 15 19 1017.3 0 14.7 21.3 29.4 76.6 65.9 225.3
08/05 01:20 19.4 39 6.51 5.1 15 17 1017.4 0 14.9 21.4 29.8 77.7 67.2 229.9
08/05 01:10 19.2 40 6.6 5.3 15 17 1017.4 0 15.1 21.6 30.2 78.8 68.4 234.1
08/05 01:00 19.5 40 6.71 5.6 15 20 1017.4 0 15.3 21.7 30.4 79.5 69.4 237.6
08/05 00:50 19.6 40 6.75 5.6 17 19 1017.2 0 15.4 21.7 30.5 79.7 69.8 238.9
08/05 00:40 19.8 40 6.83 5.8 17 19 1017.3 0 15.6 21.8 30.7 80.3 70.5 241.5
08/05 00:30 19.9 40 6.87 5.9 19 24 1017.4 0 15.7 21.8 30.9 80.6 70.9 242.9
08/05 00:20 19.9 41 7.04 6.3 20 22 1017.4 0 16.0 22.1 31.4 82.2 72.9 249.7
08/05 00:10 19.9 41 7.04 6.3 17 20 1017.5 0 16.0 22.1 31.4 82.2 72.9 249.7
08/05 00:00 20 42 7.26 6.7 17 20 1017.6 0 16.5 22.4 32.2 84.1 75.3 258.4
07/05 23:50 20 42 7.26 6.7 17 19 1017.7 0 16.5 22.4 32.2 84.1 75.3 258.4
07/05 23:40 20.3 41 7.21 6.6 15 15 1017.7 0 16.4 22.2 31.9 83.4 74.5 255.4
07/05 23:30 21 39 7.14 6.5 15 20 1017.6 0 16.2 22.0 31.4 82.0 73.0 250.4
07/05 23:20 21.3 39 7.27 6.8 17 19 1017.6 0 16.4 22.1 31.7 82.9 74.2 254.7
07/05 23:10 21.5 38 7.16 6.6 15 19 1017.6 0 16.2 21.9 31.3 81.7 72.8 249.7
07/05 23:00 21.7 38 7.25 6.8 17 20 1017.7 0 16.4 21.9 31.5 82.3 73.6 252.7
07/05 22:50 21.8 38 7.29 6.9 17 20 1017.7 0 16.5 22.0 31.6 82.6 74.0 253.9
07/05 22:40 22 38 7.37 7 19 20 1017.8 0 16.6 22.0 31.8 83.1 74.7 256.5
07/05 22:30 21.9 38 7.33 7 17 26 1017.8 0 16.5 22.0 31.7 82.9 74.4 255.3
07/05 22:20 21.7 40 7.63 7.5 17 19 1017.8 0 17.2 22.5 32.8 85.8 78.0 267.9
07/05 22:10 21.5 41 7.73 7.7 17 19 1017.8 0 17.4 22.7 33.2 87.0 79.3 272.6
07/05 22:00 21.6 41 7.78 7.8 13 19 1017.8 0 17.5 22.7 33.4 87.4 79.8 274.3
07/05 21:50 21.9 39 7.53 7.3 15 17 1017.9 0 17.0 22.3 32.4 84.7 76.7 263.3
07/05 21:40 22.4 38 7.55 7.4 17 19 1017.9 0 17.0 22.2 32.3 84.4 76.4 262.5
07/05 21:30 22.5 38 7.59 7.5 17 20 1017.9 0 17.1 22.2 32.4 84.7 76.8 263.7
07/05 21:20 22.7 38 7.68 7.7 17 20 1017.9 0 17.2 22.3 32.6 85.3 77.6 266.7
07/05 21:10 22.8 38 7.72 7.8 15 17 1017.8 0 17.3 22.3 32.7 85.5 78.0 267.9
07/05 21:00 22.9 38 7.77 7.8 17 20 1017.7 0 17.4 22.4 32.8 85.9 78.4 269.6
07/05 20:50 23.3 37 7.74 7.8 17 19 1017.5 0 17.3 22.2 32.6 85.2 77.7 267.0
07/05 20:40 23.5 37 7.82 8 17 19 1017.4 0 17.5 22.3 32.7 85.7 78.4 269.5
07/05 20:30 23.7 37 7.91 8.2 20 32 1017.3 0 17.7 22.4 33.0 86.3 79.2 272.4
07/05 20:20 23.5 39 8.25 8.8 19 24 1017.3 0 18.4 22.9 34.2 89.6 83.3 286.7
07/05 20:10 23.6 39 8.29 8.8 17 19 1017.2 0 18.5 22.9 34.3 89.9 83.6 287.9
07/05 20:00 24 38 8.27 8.8 17 24 1017 0 18.4 22.8 34.1 89.3 83.0 285.6

Last Refresh: 08-May-2026 12:09:24

Bureau of Meteorology